Time;durP1;ratioP1;P1;durP2;ratioP2;P2;SDS_P1;SDS_P2;PMS_P1;PMS_P2;Temp;Humidity;BMP_temperature;BMP_pressure;BME280_temperature;BME280_humidity;BME280_pressure;Samples;Min_cycle;Max_cycle;Signal;HPM_P1;HPM_P2
2022/03/06 00:01:38;;;;;;;36.28;16.75;;;;;;;3.15;62.81;102200.53;5061021;28;20024;-83
2022/03/06 00:04:03;;;;;;;37.42;16.88;;;;;;;3.15;63.08;102195.28;5062023;28;20695;-83
2022/03/06 00:06:29;;;;;;;34.15;16.10;;;;;;;3.06;62.06;102196.06;5062693;28;20028;-83
2022/03/06 00:08:54;;;;;;;37.25;15.90;;;;;;;3.03;62.77;102209.09;5061454;28;20029;-83
2022/03/06 00:11:19;;;;;;;32.60;16.75;;;;;;;2.96;64.24;102206.38;5061180;28;20399;-84
2022/03/06 00:13:45;;;;;;;38.03;16.67;;;;;;;2.94;63.51;102210.72;5062610;28;20025;-83
2022/03/06 00:16:10;;;;;;;38.40;17.20;;;;;;;2.91;64.40;102203.69;5063617;28;20039;-83
2022/03/06 00:18:37;;;;;;;37.38;17.80;;;;;;;2.89;62.96;102202.81;5062060;28;20063;-83
2022/03/06 00:21:03;;;;;;;37.97;17.65;;;;;;;2.85;64.47;102201.03;5061043;28;20020;-83
2022/03/06 00:23:28;;;;;;;38.22;16.55;;;;;;;2.81;64.41;102207.94;5060779;28;20029;-84
2022/03/06 00:25:54;;;;;;;40.75;17.85;;;;;;;2.73;63.98;102203.44;5062963;28;20044;-83
2022/03/06 00:28:19;;;;;;;41.40;18.05;;;;;;;2.70;64.67;102209.50;5059519;28;20031;-83
2022/03/06 00:30:46;;;;;;;38.60;17.13;;;;;;;2.65;65.47;102199.84;5059582;28;20064;-83
2022/03/06 00:33:12;;;;;;;35.20;17.08;;;;;;;2.63;65.03;102198.97;5061847;28;20451;-83
2022/03/06 00:35:37;;;;;;;35.75;16.75;;;;;;;2.58;64.44;102205.84;5064739;28;20043;-83
2022/03/06 00:38:03;;;;;;;34.90;16.63;;;;;;;2.62;64.34;102213.75;5064483;28;20060;-83
2022/03/06 00:40:29;;;;;;;39.38;17.73;;;;;;;2.62;64.69;102216.38;5064321;28;20039;-83
2022/03/06 00:42:54;;;;;;;38.70;16.95;;;;;;;2.72;65.69;102230.44;5065371;28;20021;-83
2022/03/06 00:45:19;;;;;;;40.78;17.77;;;;;;;2.75;63.10;102227.84;5065183;28;20359;-83
2022/03/06 00:47:45;;;;;;;35.28;15.77;;;;;;;2.77;64.72;102233.97;5063917;28;20040;-83
2022/03/06 00:50:11;;;;;;;35.53;16.40;;;;;;;2.77;64.11;102237.47;5065641;28;20024;-83
2022/03/06 00:52:40;;;;;;;37.25;16.83;;;;;;;2.72;63.39;102240.88;5064060;28;20486;-83
2022/03/06 00:55:06;;;;;;;35.97;16.02;;;;;;;2.71;64.40;102244.34;5062786;28;20033;-83
2022/03/06 00:57:31;;;;;;;38.10;16.73;;;;;;;2.68;63.31;102241.69;5062975;28;20032;-83
2022/03/06 00:59:57;;;;;;;34.30;14.88;;;;;;;2.64;64.05;102242.47;5063494;28;20024;-83
2022/03/06 01:02:22;;;;;;;36.42;16.75;;;;;;;2.63;62.84;102244.22;5063330;28;20119;-83
2022/03/06 01:04:48;;;;;;;36.03;17.00;;;;;;;2.57;64.49;102230.22;5063126;28;20028;-83
2022/03/06 01:07:14;;;;;;;35.83;16.42;;;;;;;2.54;63.91;102238.84;5062387;28;20020;-83
2022/03/06 01:09:39;;;;;;;37.28;16.80;;;;;;;2.54;64.28;102234.50;5062422;28;20532;-83
2022/03/06 01:12:05;;;;;;;38.78;16.58;;;;;;;2.53;63.97;102234.50;5062846;28;20057;-83
2022/03/06 01:14:30;;;;;;;35.40;16.00;;;;;;;2.51;64.59;102247.50;5063992;28;20428;-83
2022/03/06 01:16:56;;;;;;;33.45;15.95;;;;;;;2.43;64.64;102246.53;5063417;28;20496;-83
2022/03/06 01:19:21;;;;;;;34.85;15.95;;;;;;;2.40;64.99;102251.69;5062772;28;20032;-83
2022/03/06 01:21:46;;;;;;;37.60;16.95;;;;;;;2.38;64.26;102247.28;5064374;28;20024;-83
2022/03/06 01:24:12;;;;;;;30.95;14.75;;;;;;;2.33;65.25;102238.50;5064851;28;20021;-83
2022/03/06 01:26:38;;;;;;;38.75;16.83;;;;;;;2.36;65.45;102244.66;5064923;28;20056;-83
2022/03/06 01:29:04;;;;;;;36.95;16.30;;;;;;;2.34;65.25;102256.81;5060572;28;20038;-83
2022/03/06 01:31:29;;;;;;;38.03;17.20;;;;;;;2.26;64.78;102250.59;5064124;28;20036;-83
2022/03/06 01:33:55;;;;;;;37.45;16.00;;;;;;;2.26;66.05;102261.91;5061798;28;20043;-83
2022/03/06 01:36:20;;;;;;;34.85;17.20;;;;;;;2.21;64.39;102252.25;5064691;28;20055;-83
2022/03/06 01:38:45;;;;;;;35.97;16.48;;;;;;;2.19;65.35;102253.94;5061913;28;20412;-83
2022/03/06 01:41:11;;;;;;;32.20;16.05;;;;;;;2.19;65.35;102257.44;5061516;28;20040;-83
2022/03/06 01:43:36;;;;;;;36.80;16.65;;;;;;;2.12;65.61;102262.53;5060740;28;20050;-83
2022/03/06 01:46:01;;;;;;;36.85;16.77;;;;;;;2.04;64.85;102258.03;5060150;28;20329;-83
2022/03/06 01:48:27;;;;;;;33.30;15.73;;;;;;;2.02;66.07;102259.75;5063289;28;20123;-83
2022/03/06 01:50:52;;;;;;;36.08;15.85;;;;;;;2.03;65.62;102258.03;5063317;28;20035;-83
2022/03/06 01:53:17;;;;;;;38.35;17.63;;;;;;;2.00;65.17;102264.03;5061450;28;20032;-83
2022/03/06 01:55:43;;;;;;;36.78;16.42;;;;;;;1.99;66.92;102259.69;5061747;28;20032;-83
2022/03/06 01:58:10;;;;;;;34.60;15.18;;;;;;;1.92;65.95;102255.22;5060526;28;20473;-83
2022/03/06 02:00:44;;;;;;;37.13;16.20;;;;;;;1.91;66.36;102271.72;5062385;28;20020;-83
2022/03/06 02:03:10;;;;;;;33.50;15.82;;;;;;;1.86;66.51;102265.53;5077557;28;20122;-83
2022/03/06 02:05:36;;;;;;;34.28;15.45;;;;;;;1.77;67.71;102254.91;5062281;28;20033;-83
2022/03/06 02:08:02;;;;;;;36.10;15.95;;;;;;;1.88;67.47;102263.84;5061164;28;20078;-83
2022/03/06 02:10:27;;;;;;;36.85;16.48;;;;;;;1.87;65.47;102256.88;5062164;28;20035;-83
2022/03/06 02:12:52;;;;;;;38.58;16.92;;;;;;;1.88;65.12;102260.38;5060563;28;20037;-83
2022/03/06 02:15:18;;;;;;;35.33;15.82;;;;;;;1.88;66.58;102263.84;5060423;28;20079;-83
2022/03/06 02:17:44;;;;;;;38.60;16.60;;;;;;;1.88;68.22;102263.84;5062726;28;20067;-83
2022/03/06 02:20:11;;;;;;;32.95;15.70;;;;;;;1.87;67.23;102271.66;5061602;28;20426;-83
2022/03/06 02:22:39;;;;;;;32.60;15.73;;;;;;;1.76;66.29;102268.81;5061298;28;20372;-83
2022/03/06 02:25:20;;;;;;;34.42;16.45;;;;;;;1.73;66.94;102267.06;5061892;28;20048;-83
2022/03/06 02:27:47;;;;;;;35.47;16.63;;;;;;;1.64;66.05;102273.81;5063102;28;20032;-83
2022/03/06 02:30:21;;;;;;;38.00;17.23;;;;;;;1.60;67.24;102272.00;5065490;28;20056;-83
2022/03/06 02:32:48;;;;;;;33.75;16.02;;;;;;;1.52;68.35;102275.31;5059974;28;20055;-83
2022/03/06 02:35:15;;;;;;;39.40;17.38;;;;;;;1.50;68.17;102276.16;5064300;28;20175;-83
2022/03/06 02:37:41;;;;;;;36.85;17.40;;;;;;;1.51;68.21;102285.72;5061810;28;20032;-83
2022/03/06 02:40:09;;;;;;;40.65;17.35;;;;;;;1.45;67.43;102276.06;5059853;28;20094;-83
2022/03/06 02:42:36;;;;;;;31.40;15.23;;;;;;;1.48;67.84;102286.53;5061399;28;20036;-83
2022/03/06 02:45:20;;;;;;;33.15;15.90;;;;;;;1.42;67.17;102285.53;5062037;28;20028;-83
2022/03/06 02:47:46;;;;;;;37.65;15.77;;;;;;;1.43;66.72;102285.53;5060401;28;20507;-83
2022/03/06 02:50:14;;;;;;;34.88;15.02;;;;;;;1.47;67.04;102281.28;5063539;28;20020;-83
2022/03/06 02:52:40;;;;;;;36.15;17.13;;;;;;;1.48;67.31;102278.69;5062130;28;20818;-83
2022/03/06 02:55:08;;;;;;;35.75;15.27;;;;;;;1.47;67.59;102278.69;5077862;28;20021;-83
2022/03/06 02:57:33;;;;;;;33.67;16.33;;;;;;;1.50;67.70;102282.22;5061984;28;20036;-83
2022/03/06 02:59:59;;;;;;;35.20;16.48;;;;;;;1.42;67.35;102286.41;5062935;28;20554;-83
2022/03/06 03:02:24;;;;;;;36.05;16.25;;;;;;;1.43;67.79;102293.38;5062705;28;20516;-83
2022/03/06 03:04:49;;;;;;;34.50;16.10;;;;;;;1.33;67.60;102282.72;5062876;28;20103;-83
2022/03/06 03:07:15;;;;;;;33.08;15.30;;;;;;;1.26;67.99;102286.94;5064270;28;20056;-83
2022/03/06 03:09:40;;;;;;;32.90;15.30;;;;;;;1.29;67.82;102284.38;5062840;28;20103;-83
2022/03/06 03:12:06;;;;;;;34.67;15.98;;;;;;;1.24;68.05;102291.22;5061444;28;20352;-83
2022/03/06 03:14:32;;;;;;;34.65;15.75;;;;;;;1.24;69.01;102292.09;5062711;28;20047;-83
2022/03/06 03:17:01;;;;;;;33.38;15.25;;;;;;;1.27;68.94;102300.00;5059192;28;20047;-83
2022/03/06 03:19:26;;;;;;;34.60;15.45;;;;;;;1.25;69.31;102304.28;5061099;28;20024;-83
2022/03/06 03:21:52;;;;;;;32.63;16.38;;;;;;;1.21;68.33;102298.97;5063325;28;20028;-83
2022/03/06 03:24:18;;;;;;;28.95;14.23;;;;;;;1.14;68.46;102289.28;5061999;28;20047;-83
2022/03/06 03:26:43;;;;;;;33.53;14.43;;;;;;;1.11;69.30;102284.88;5060588;28;20101;-83
2022/03/06 03:29:08;;;;;;;31.83;14.88;;;;;;;1.12;68.99;102289.25;5060396;28;20364;-82
2022/03/06 03:31:34;;;;;;;28.90;15.13;;;;;;;1.14;69.39;102294.47;5062410;28;20531;-82
2022/03/06 03:33:59;;;;;;;34.03;15.05;;;;;;;1.11;68.82;102297.88;5061750;28;20032;-83
2022/03/06 03:36:24;;;;;;;32.28;15.75;;;;;;;1.00;69.39;102289.84;5063735;28;20194;-82
2022/03/06 03:38:50;;;;;;;31.58;14.68;;;;;;;0.96;69.16;102282.81;5060516;28;20020;-83
2022/03/06 03:41:15;;;;;;;32.70;14.23;;;;;;;0.89;69.95;102291.34;5061684;28;20436;-83
2022/03/06 03:43:40;;;;;;;32.05;15.25;;;;;;;0.88;69.05;102289.56;5062742;28;20032;-83
2022/03/06 03:46:06;;;;;;;30.70;13.82;;;;;;;0.89;69.68;102295.66;5060693;28;20424;-83
2022/03/06 03:48:32;;;;;;;30.35;14.73;;;;;;;0.88;70.63;102297.38;5060933;28;20033;-82
2022/03/06 03:50:58;;;;;;;30.67;14.25;;;;;;;0.87;69.58;102289.53;5062540;28;20029;-83
2022/03/06 03:53:24;;;;;;;36.67;15.60;;;;;;;0.85;69.76;102294.72;5060499;28;20045;-82
2022/03/06 03:55:50;;;;;;;31.70;14.65;;;;;;;0.88;70.46;102291.28;5059523;28;20043;-83
2022/03/06 03:58:15;;;;;;;32.40;15.30;;;;;;;0.83;70.00;102291.19;5060616;28;20167;-83
2022/03/06 04:00:44;;;;;;;35.95;16.27;;;;;;;0.84;69.61;102300.78;5063722;28;20558;-83
2022/03/06 04:03:10;;;;;;;34.38;15.50;;;;;;;0.81;70.11;102292.00;5059786;28;20036;-83
2022/03/06 04:05:35;;;;;;;33.72;14.90;;;;;;;0.76;70.21;102304.91;5059533;28;20036;-83
2022/03/06 04:08:01;;;;;;;32.05;14.65;;;;;;;0.68;70.03;102301.25;5060741;28;20021;-83
2022/03/06 04:10:26;;;;;;;28.73;13.98;;;;;;;0.72;70.91;102303.06;5066925;28;20565;-82
2022/03/06 04:12:52;;;;;;;30.38;14.05;;;;;;;0.72;70.39;102303.94;5064600;28;21056;-83
2022/03/06 04:15:17;;;;;;;31.45;14.82;;;;;;;0.68;70.25;102306.44;5064724;28;20025;-83
2022/03/06 04:17:43;;;;;;;32.08;14.80;;;;;;;0.67;69.75;102308.16;5065397;28;20068;-83
2022/03/06 04:20:08;;;;;;;34.83;13.80;;;;;;;0.69;69.60;102321.22;5063841;28;20424;-83
2022/03/06 04:22:34;;;;;;;29.73;14.55;;;;;;;0.66;70.71;102332.44;5064281;28;20074;-83
2022/03/06 04:24:59;;;;;;;32.17;14.40;;;;;;;0.62;70.68;102328.00;5066377;28;20496;-83
2022/03/06 04:27:25;;;;;;;31.02;14.38;;;;;;;0.63;69.64;102342.75;5064219;28;20105;-83
2022/03/06 04:29:50;;;;;;;30.02;13.27;;;;;;;0.56;71.04;102333.06;5067588;28;20491;-82
2022/03/06 04:32:15;;;;;;;26.15;14.13;;;;;;;0.63;70.28;102334.09;5063444;28;20094;-83
2022/03/06 04:34:41;;;;;;;31.90;14.52;;;;;;;0.66;70.55;102336.78;5065046;28;20039;-83
2022/03/06 04:37:06;;;;;;;34.38;15.25;;;;;;;0.65;70.89;102330.69;5067592;28;20033;-82
2022/03/06 04:39:31;;;;;;;31.23;14.85;;;;;;;0.77;70.38;102343.09;5065216;28;20043;-83
2022/03/06 04:41:56;;;;;;;29.60;14.10;;;;;;;0.74;70.64;102340.41;5062044;28;20040;-82
2022/03/06 04:44:23;;;;;;;28.67;13.75;;;;;;;0.77;70.26;102343.09;5063419;28;20035;-83
2022/03/06 04:46:48;;;;;;;29.30;14.48;;;;;;;0.73;70.61;102342.13;5064588;28;20719;-82
2022/03/06 04:49:14;;;;;;;31.48;14.93;;;;;;;0.66;70.44;102345.44;5065972;28;20029;-83
2022/03/06 04:51:39;;;;;;;30.33;15.38;;;;;;;0.67;70.44;102356.75;5063760;28;20026;-83
2022/03/06 04:54:05;;;;;;;29.67;14.82;;;;;;;0.65;70.72;102361.00;5064121;28;20115;-82
2022/03/06 04:56:30;;;;;;;33.33;15.60;;;;;;;0.58;70.78;102359.13;5063432;28;20032;-83
2022/03/06 04:58:55;;;;;;;30.92;14.65;;;;;;;0.53;70.79;102363.31;5065815;28;20106;-82
2022/03/06 05:01:21;;;;;;;30.58;14.90;;;;;;;0.45;70.61;102358.78;5063610;28;20922;-82
2022/03/06 05:03:46;;;;;;;28.98;14.80;;;;;;;0.52;70.63;102374.59;5064444;28;20487;-83
2022/03/06 05:06:11;;;;;;;29.98;14.85;;;;;;;0.45;71.48;102366.59;5065181;28;20036;-83
2022/03/06 05:08:37;;;;;;;27.25;14.57;;;;;;;0.47;70.95;102375.34;5063960;28;20062;-83
2022/03/06 05:11:02;;;;;;;28.65;15.18;;;;;;;0.43;70.79;102367.41;5062922;28;20438;-83
2022/03/06 05:13:29;;;;;;;27.80;14.75;;;;;;;0.45;70.88;102383.94;5066362;28;20032;-82
2022/03/06 05:15:55;;;;;;;29.60;14.90;;;;;;;0.46;70.78;102375.28;5065062;28;20036;-83
2022/03/06 05:18:20;;;;;;;32.17;15.45;;;;;;;0.43;70.86;102378.69;5063906;28;20033;-82
2022/03/06 05:20:45;;;;;;;32.22;15.63;;;;;;;0.43;70.90;102377.81;5064039;28;20425;-83
2022/03/06 05:23:11;;;;;;;28.88;14.90;;;;;;;0.47;70.99;102393.56;5065100;28;20036;-82
2022/03/06 05:25:36;;;;;;;30.67;15.50;;;;;;;0.45;71.11;102386.53;5061869;28;20036;-83
2022/03/06 05:28:01;;;;;;;27.58;14.60;;;;;;;0.43;70.87;102383.91;5065601;28;20023;-82
2022/03/06 05:30:27;;;;;;;28.90;15.30;;;;;;;0.42;72.00;102376.94;5062273;28;20032;-83
2022/03/06 05:32:52;;;;;;;28.15;13.80;;;;;;;0.38;71.15;102374.22;5062562;28;20028;-83
2022/03/06 05:35:17;;;;;;;29.45;15.38;;;;;;;0.40;71.45;102388.13;5064122;28;20098;-83
2022/03/06 05:37:43;;;;;;;32.45;14.65;;;;;;;0.35;71.32;102385.41;5064154;28;20506;-83
2022/03/06 05:40:09;;;;;;;29.55;15.38;;;;;;;0.27;71.17;102389.53;5065153;28;20422;-83
2022/03/06 05:42:34;;;;;;;30.80;14.50;;;;;;;0.31;71.36;102395.69;5062557;28;20036;-83
2022/03/06 05:45:00;;;;;;;31.25;14.88;;;;;;;0.25;71.00;102392.09;5063839;28;20032;-83
2022/03/06 05:47:25;;;;;;;28.45;15.43;;;;;;;0.27;71.42;102394.72;5062722;28;20040;-83
2022/03/06 05:49:50;;;;;;;30.40;15.73;;;;;;;0.25;71.38;102405.09;5063235;28;20114;-83
2022/03/06 05:52:16;;;;;;;28.45;14.10;;;;;;;0.21;71.59;102407.56;5064476;28;20028;-83
2022/03/06 05:54:42;;;;;;;30.35;16.17;;;;;;;0.15;71.81;102408.28;5061467;28;20162;-83
2022/03/06 05:57:07;;;;;;;29.42;15.15;;;;;;;0.17;72.17;102400.50;5064096;28;20103;-83
2022/03/06 05:59:33;;;;;;;29.65;15.52;;;;;;;0.19;71.47;102404.06;5061283;28;20373;-83
2022/03/06 06:01:58;;;;;;;31.10;14.52;;;;;;;0.17;70.87;102396.19;5064687;28;20101;-83
2022/03/06 06:04:24;;;;;;;29.77;15.27;;;;;;;0.17;71.42;102410.91;5063579;28;20387;-83
2022/03/06 06:06:49;;;;;;;28.35;13.63;;;;;;;0.12;70.52;102403.00;5063534;28;20055;-83
2022/03/06 06:09:14;;;;;;;29.75;15.55;;;;;;;0.17;71.56;102424.81;5063214;28;20043;-83
2022/03/06 06:11:40;;;;;;;28.63;14.43;;;;;;;0.15;72.03;102426.50;5063491;28;20086;-82
2022/03/06 06:14:05;;;;;;;30.25;15.13;;;;;;;0.09;71.55;102423.69;5060493;28;20166;-82
2022/03/06 06:16:31;;;;;;;27.70;14.85;;;;;;;0.16;71.83;102427.38;5062936;28;20349;-82
2022/03/06 06:18:57;;;;;;;29.98;15.50;;;;;;;0.23;71.75;102435.41;5062755;28;20028;-82
2022/03/06 06:21:22;;;;;;;32.25;14.40;;;;;;;0.22;70.98;102435.34;5064432;28;20028;-82
2022/03/06 06:23:48;;;;;;;30.05;15.20;;;;;;;0.30;71.49;102436.44;5062951;28;20028;-83
2022/03/06 06:26:13;;;;;;;30.40;15.45;;;;;;;0.27;71.50;102435.47;5063466;28;20055;-83
2022/03/06 06:28:39;;;;;;;28.67;14.95;;;;;;;0.31;71.05;102437.31;5062107;28;20412;-83
2022/03/06 06:31:05;;;;;;;31.33;15.73;;;;;;;0.31;71.64;102452.91;5062641;28;20028;-82
2022/03/06 06:33:31;;;;;;;33.20;14.93;;;;;;;0.23;71.46;102445.81;5062566;28;20052;-82
2022/03/06 06:35:56;;;;;;;29.83;13.50;;;;;;;0.22;71.81;102449.22;5062763;28;20047;-83
2022/03/06 06:38:22;;;;;;;30.27;15.00;;;;;;;0.20;72.05;102439.63;5061022;28;20032;-83
2022/03/06 06:40:51;;;;;;;29.27;15.55;;;;;;;0.27;71.19;102449.34;5063797;28;20112;-83
2022/03/06 06:43:17;;;;;;;29.80;15.07;;;;;;;0.32;70.85;102450.34;5063070;28;20028;-83
2022/03/06 06:45:43;;;;;;;32.08;14.85;;;;;;;0.31;71.20;102448.59;5062198;28;20032;-83
2022/03/06 06:48:08;;;;;;;26.98;14.82;;;;;;;0.34;70.06;102455.63;5062666;28;20043;-83
2022/03/06 06:50:34;;;;;;;27.90;14.20;;;;;;;0.44;70.97;102463.72;5062996;28;20044;-83
2022/03/06 06:52:59;;;;;;;26.15;13.75;;;;;;;0.46;71.33;102456.81;5061937;28;20028;-83
2022/03/06 06:55:24;;;;;;;28.55;15.27;;;;;;;0.48;71.31;102457.75;5062807;28;20028;-83
2022/03/06 06:57:50;;;;;;;27.50;14.68;;;;;;;0.50;71.49;102460.38;5062613;28;20416;-83
2022/03/06 07:00:15;;;;;;;27.45;14.45;;;;;;;0.56;71.32;102463.16;5061513;28;20597;-83
2022/03/06 07:02:42;;;;;;;26.65;15.07;;;;;;;0.53;71.44;102459.59;5059591;28;20033;-83
2022/03/06 07:05:08;;;;;;;28.23;15.32;;;;;;;0.62;71.29;102467.66;5062111;28;20504;-83
2022/03/06 07:07:33;;;;;;;28.98;14.55;;;;;;;0.60;70.88;102462.38;5060396;28;20045;-83
2022/03/06 07:09:59;;;;;;;164.32;32.95;;;;;;;0.78;70.31;102482.81;5060431;28;20704;-83
2022/03/06 07:12:24;;;;;;;24.77;14.35;;;;;;;0.80;70.55;102473.34;5061432;28;20028;-83
2022/03/06 07:14:49;;;;;;;26.75;14.52;;;;;;;0.84;70.09;102472.59;5060497;28;20032;-83
2022/03/06 07:17:14;;;;;;;28.42;14.93;;;;;;;0.97;70.14;102484.19;5059921;28;20525;-83
2022/03/06 07:19:40;;;;;;;32.53;15.13;;;;;;;1.02;70.26;102473.03;5061176;28;20036;-83
2022/03/06 07:22:05;;;;;;;27.00;14.15;;;;;;;1.12;69.97;102476.78;5062071;28;20032;-83
2022/03/06 07:24:30;;;;;;;31.25;15.63;;;;;;;1.21;69.59;102487.44;5060445;28;20024;-83
2022/03/06 07:26:55;;;;;;;25.50;14.57;;;;;;;1.18;68.37;102478.66;5060882;28;20033;-83
2022/03/06 07:29:21;;;;;;;27.10;14.60;;;;;;;1.25;69.44;102490.97;5061222;28;20065;-83
2022/03/06 07:31:46;;;;;;;24.50;14.35;;;;;;;1.30;68.14;102489.34;5060328;28;20498;-83
2022/03/06 07:34:11;;;;;;;25.48;14.23;;;;;;;1.33;68.36;102493.78;5060254;28;20021;-83
2022/03/06 07:36:37;;;;;;;28.40;15.88;;;;;;;1.38;68.19;102499.97;5058857;28;20025;-83
2022/03/06 07:39:02;;;;;;;27.75;14.68;;;;;;;1.52;68.34;102503.78;5059902;28;20032;-83
2022/03/06 07:41:28;;;;;;;30.17;14.98;;;;;;;1.59;68.31;102494.41;5059525;28;20032;-83
2022/03/06 07:43:53;;;;;;;30.70;15.10;;;;;;;1.73;68.19;102508.63;5065086;28;20023;-83
2022/03/06 07:46:18;;;;;;;35.17;14.85;;;;;;;1.86;67.59;102520.19;5063608;28;20025;-82
2022/03/06 07:48:44;;;;;;;25.80;14.00;;;;;;;1.96;67.21;102516.97;5065843;28;20067;-82
2022/03/06 07:51:09;;;;;;;27.05;14.85;;;;;;;2.07;66.55;102527.63;5063101;28;20363;-83
2022/03/06 07:53:34;;;;;;;28.85;15.18;;;;;;;2.17;66.60;102524.38;5064494;28;20028;-83
2022/03/06 07:56:00;;;;;;;29.10;14.07;;;;;;;2.22;65.54;102525.34;5063974;28;20070;-83
2022/03/06 07:58:25;;;;;;;27.38;14.70;;;;;;;2.29;65.39;102527.25;5065637;28;20519;-83
2022/03/06 08:00:50;;;;;;;26.95;13.00;;;;;;;2.37;65.32;102527.41;5064802;28;20458;-83
2022/03/06 08:03:16;;;;;;;28.00;14.68;;;;;;;2.46;65.76;102535.41;5065183;28;20103;-83
2022/03/06 08:05:41;;;;;;;25.98;13.88;;;;;;;2.49;65.13;102530.28;5064492;28;20025;-83
2022/03/06 08:08:07;;;;;;;31.38;14.98;;;;;;;2.63;64.99;102543.59;5063548;28;20044;-83
2022/03/06 08:10:32;;;;;;;24.95;13.82;;;;;;;2.87;64.79;102537.97;5064656;28;20024;-83
2022/03/06 08:12:57;;;;;;;23.65;12.95;;;;;;;3.17;64.36;102538.53;5064119;28;20155;-83
2022/03/06 08:15:23;;;;;;;31.13;14.18;;;;;;;3.57;63.02;102541.81;5065095;28;20473;-83
2022/03/06 08:17:48;;;;;;;22.35;13.30;;;;;;;3.90;62.51;102545.78;5063334;28;20077;-83
2022/03/06 08:20:14;;;;;;;24.40;13.38;;;;;;;4.25;60.88;102539.34;5063628;28;20502;-83
2022/03/06 08:22:39;;;;;;;25.48;12.63;;;;;;;4.55;59.32;102551.91;5063668;28;20028;-84
2022/03/06 08:25:06;;;;;;;22.13;12.70;;;;;;;4.84;58.37;102556.59;5065388;28;20040;-83
2022/03/06 08:27:32;;;;;;;24.02;13.25;;;;;;;5.02;58.11;102554.19;5064354;28;20476;-83
2022/03/06 08:29:58;;;;;;;23.58;13.10;;;;;;;5.41;57.78;102558.06;5065828;28;20036;-83
2022/03/06 08:32:24;;;;;;;21.35;12.40;;;;;;;5.71;56.80;102540.81;5063600;28;20039;-83
2022/03/06 08:34:51;;;;;;;20.27;13.05;;;;;;;5.98;55.65;102554.16;5063736;28;20418;-84
2022/03/06 08:37:18;;;;;;;19.98;12.57;;;;;;;6.14;54.56;102563.88;5063512;28;20034;-83
2022/03/06 08:39:47;;;;;;;21.13;12.13;;;;;;;6.48;54.48;102565.78;5063100;28;20453;-83
2022/03/06 08:42:13;;;;;;;20.90;12.50;;;;;;;6.73;53.75;102562.41;5064578;28;20488;-83
2022/03/06 08:44:38;;;;;;;19.45;12.13;;;;;;;6.96;52.01;102558.97;5064488;28;20029;-83
2022/03/06 08:47:04;;;;;;;17.25;11.95;;;;;;;7.11;51.58;102570.38;5063955;28;20511;-83
2022/03/06 08:49:30;;;;;;;20.35;12.18;;;;;;;7.52;52.54;102573.94;5063781;28;20066;-83
2022/03/06 08:51:55;;;;;;;18.77;10.63;;;;;;;7.87;49.54;102566.03;5064927;28;20518;-83
2022/03/06 08:54:21;;;;;;;19.73;13.00;;;;;;;8.19;49.32;102563.31;5062641;28;20043;-84
2022/03/06 08:56:46;;;;;;;19.67;11.98;;;;;;;8.71;49.62;102572.84;5064915;28;20111;-84
2022/03/06 08:59:12;;;;;;;21.08;12.57;;;;;;;9.14;46.57;102560.31;5064456;28;20032;-84
2022/03/06 09:01:37;;;;;;;21.05;12.90;;;;;;;9.50;45.49;102571.47;5062559;28;20430;-84
2022/03/06 09:04:02;;;;;;;17.77;12.23;;;;;;;9.97;44.96;102563.13;5065830;28;20025;-84
2022/03/06 09:06:28;;;;;;;17.30;11.57;;;;;;;10.46;44.52;102567.91;5062312;28;20387;-84
2022/03/06 09:08:53;;;;;;;17.80;11.05;;;;;;;10.96;43.07;102571.69;5062909;28;20972;-83
2022/03/06 09:11:18;;;;;;;16.65;11.75;;;;;;;11.37;44.30;102559.56;5064134;28;20047;-83
2022/03/06 09:13:43;;;;;;;38.17;13.23;;;;;;;12.02;40.25;102568.19;5063610;28;20484;-83
2022/03/06 09:16:09;;;;;;;17.73;11.25;;;;;;;12.16;39.48;102568.81;5063116;28;20025;-83
2022/03/06 09:18:34;;;;;;;16.13;11.27;;;;;;;12.12;39.65;102576.84;5065040;28;20078;-83
2022/03/06 09:20:59;;;;;;;18.77;11.85;;;;;;;12.46;38.01;102572.66;5062836;28;20032;-84
2022/03/06 09:23:25;;;;;;;16.23;11.82;;;;;;;12.59;38.69;102570.63;5065012;28;20047;-84
2022/03/06 09:25:50;;;;;;;17.88;11.52;;;;;;;12.91;39.14;102572.56;5063047;28;20049;-84
2022/03/06 09:28:16;;;;;;;17.85;11.77;;;;;;;13.53;37.55;102569.41;5065598;28;20036;-84
2022/03/06 09:30:42;;;;;;;18.08;11.55;;;;;;;14.08;35.14;102572.38;5095091;28;20021;-84
2022/03/06 09:33:08;;;;;;;17.08;11.13;;;;;;;14.13;34.91;102583.78;5063945;28;20570;-83
2022/03/06 09:35:33;;;;;;;16.65;11.68;;;;;;;14.02;35.81;102571.63;5063821;28;20040;-83
2022/03/06 09:37:59;;;;;;;16.45;12.35;;;;;;;14.18;36.25;102573.91;5064205;28;20055;-84
2022/03/06 09:40:24;;;;;;;19.27;11.93;;;;;;;14.67;36.35;102562.75;5064105;28;20041;-84
2022/03/06 09:42:50;;;;;;;17.55;11.90;;;;;;;15.57;34.89;102572.34;5062519;28;20086;-84
2022/03/06 09:45:16;;;;;;;18.25;13.38;;;;;;;16.20;32.93;102576.41;5063425;28;20467;-84
2022/03/06 09:47:44;;;;;;;16.25;11.70;;;;;;;16.34;32.34;102567.91;5063014;28;20041;-84
2022/03/06 09:50:12;;;;;;;15.90;12.05;;;;;;;16.69;30.95;102560.34;5064471;28;20036;-84
2022/03/06 09:52:37;;;;;;;17.02;11.48;;;;;;;16.72;31.98;102560.28;5063487;28;20064;-84
2022/03/06 09:55:03;;;;;;;16.42;11.82;;;;;;;16.62;31.71;102556.19;5063697;28;20056;-84
2022/03/06 09:57:29;;;;;;;18.60;12.10;;;;;;;16.66;30.84;102569.38;5062738;28;20032;-84
2022/03/06 09:59:54;;;;;;;18.00;12.80;;;;;;;16.97;31.24;102549.50;5061736;28;20106;-84
2022/03/06 10:02:20;;;;;;;15.50;12.13;;;;;;;17.09;29.96;102563.25;5061708;28;20032;-84
2022/03/06 10:04:50;;;;;;;17.38;13.73;;;;;;;17.40;30.94;102559.34;5062164;28;20048;-84
2022/03/06 10:07:17;;;;;;;17.95;13.48;;;;;;;18.10;29.15;102563.50;5061339;28;20033;-84
2022/03/06 10:09:51;;;;;;;17.55;12.80;;;;;;;18.34;29.81;102565.09;5064107;28;20052;-84
2022/03/06 10:12:27;;;;;;;15.85;11.73;;;;;;;18.76;28.31;102558.72;5063062;28;20531;-83
2022/03/06 10:14:55;;;;;;;15.65;11.85;;;;;;;18.21;27.05;102563.88;5062532;28;20545;-84
2022/03/06 10:17:25;;;;;;;14.60;11.43;;;;;;;18.34;29.87;102570.44;5060861;28;20020;-84
2022/03/06 10:19:58;;;;;;;16.02;11.05;;;;;;;18.71;29.39;102560.75;5061493;28;20035;-84
2022/03/06 10:22:32;;;;;;;16.33;11.07;;;;;;;19.37;27.64;102571.81;5061419;28;20119;-84
2022/03/06 10:24:59;;;;;;;16.83;12.40;;;;;;;19.80;26.58;102571.50;5061174;28;20055;-84
2022/03/06 10:27:48;;;;;;;14.05;11.35;;;;;;;19.71;27.10;102569.28;5063749;28;20508;-84
2022/03/06 10:30:35;;;;;;;15.82;11.18;;;;;;;19.82;25.71;102564.25;5063109;28;20112;-84
2022/03/06 10:33:04;;;;;;;13.68;10.43;;;;;;;19.73;26.93;102572.78;5062457;28;20491;-84
2022/03/06 10:35:43;;;;;;;13.63;9.80;;;;;;;19.99;26.03;102574.09;5060931;28;20035;-84
2022/03/06 10:38:36;;;;;;;14.85;9.85;;;;;;;20.04;25.95;102574.72;5062528;28;20036;-84
2022/03/06 10:41:17;;;;;;;12.93;10.25;;;;;;;20.00;25.58;102570.47;5062937;28;20029;-84
2022/03/06 10:43:43;;;;;;;13.77;9.65;;;;;;;20.22;24.47;102572.91;5063396;28;20446;-84
2022/03/06 10:46:16;;;;;;;11.20;9.75;;;;;;;20.53;25.62;102580.22;5058598;28;20057;-84
2022/03/06 10:48:52;;;;;;;13.88;10.48;;;;;;;20.32;23.82;102574.13;5061146;28;20037;-84
2022/03/06 10:51:18;;;;;;;13.95;9.80;;;;;;;19.91;23.75;102566.47;5062519;28;20024;-84
2022/03/06 10:53:44;;;;;;;10.80;9.32;;;;;;;19.72;24.29;102568.34;5062156;28;20035;-84
2022/03/06 10:56:14;;;;;;;11.02;9.25;;;;;;;20.08;26.28;102566.44;5060536;28;20043;-84
2022/03/06 10:58:42;;;;;;;12.75;9.43;;;;;;;20.69;24.91;102561.41;5060278;28;20036;-84
2022/03/06 11:01:08;;;;;;;11.55;9.32;;;;;;;20.92;22.94;102566.38;5060777;28;20425;-84
2022/03/06 11:03:35;;;;;;;13.38;9.80;;;;;;;20.09;23.71;102572.66;5059292;28;20501;-84
2022/03/06 11:06:05;;;;;;;19.27;9.55;;;;;;;19.73;24.19;102580.84;5061217;28;20029;-84
2022/03/06 11:08:31;;;;;;;11.80;10.35;;;;;;;19.40;23.78;102568.13;5062089;28;20020;-84
2022/03/06 11:10:56;;;;;;;13.20;10.40;;;;;;;19.37;23.81;102562.91;5061216;28;20099;-84
2022/03/06 11:13:22;;;;;;;13.07;9.85;;;;;;;19.51;23.90;102551.50;5061192;28;20440;-84